Time,TemperatureF,DewpointF,PressureIn,WindDirection,WindDirectionDegrees,WindSpeedMPH,WindSpeedGustMPH,Humidity,HourlyPrecipIn,Conditions,Clouds,dailyrainin,SoftwareType,DateUTC
2013-01-04 06:12:00,41.0,27.8,29.88,North,357,0.0,0.0,59,0.00,,---,0.00,VWS V13.01,2013-01-04 12:12:00,
2013-01-04 06:17:00,41.0,27.8,29.88,North,357,0.0,0.0,59,0.00,,---,0.00,VWS V13.01,2013-01-04 12:17:00,
2013-01-04 06:22:00,41.2,28.0,29.88,North,357,0.0,0.0,59,0.00,,---,0.00,VWS V13.01,2013-01-04 12:22:00,
2013-01-04 06:27:00,41.2,27.5,29.88,North,357,0.0,0.0,58,0.00,,---,0.00,VWS V13.01,2013-01-04 12:27:00,
2013-01-04 06:32:00,41.2,27.5,29.88,North,357,0.0,0.0,58,0.00,,---,0.00,VWS V13.01,2013-01-04 12:32:00,
2013-01-04 06:37:00,41.2,28.0,29.88,NW,305,0.0,0.0,59,0.00,,---,0.00,VWS V13.01,2013-01-04 12:37:00,
2013-01-04 06:42:00,41.2,28.4,29.88,WNW,302,2.7,2.7,60,0.00,,---,0.00,VWS V13.01,2013-01-04 12:42:00,
2013-01-04 06:47:00,41.2,28.4,29.88,WNW,301,2.7,2.7,60,0.00,,---,0.00,VWS V13.01,2013-01-04 12:47:00,
2013-01-04 06:52:00,41.0,28.6,29.88,WNW,301,3.6,3.6,61,0.00,,---,0.00,VWS V13.01,2013-01-04 12:52:00,
2013-01-04 06:57:00,41.0,28.6,29.88,WNW,292,2.7,2.7,61,0.00,,---,0.00,VWS V13.01,2013-01-04 12:57:00,
2013-01-04 07:02:00,41.0,28.6,29.88,WNW,294,0.0,0.0,61,0.00,,---,0.00,VWS V13.01,2013-01-04 13:02:00,
2013-01-04 07:07:00,41.0,29.0,29.88,WNW,294,0.0,0.0,62,0.00,,---,0.00,VWS V13.01,2013-01-04 13:07:00,
2013-01-04 07:12:00,41.0,29.4,29.88,WNW,294,3.6,3.6,63,0.00,,---,0.00,VWS V13.01,2013-01-04 13:12:00,
2013-01-04 07:17:00,41.0,29.4,29.88,WNW,295,3.1,3.1,63,0.00,,---,0.00,VWS V13.01,2013-01-04 13:17:00,
2013-01-04 07:22:00,41.2,29.6,29.88,NNW,334,2.7,2.7,63,0.00,,---,0.00,VWS V13.01,2013-01-04 13:22:00,
2013-01-04 07:27:00,41.2,29.6,29.88,North,0,3.6,3.6,63,0.00,,---,0.00,VWS V13.01,2013-01-04 13:27:00,
2013-01-04 07:32:00,41.2,29.6,29.88,NW,324,2.7,3.1,63,0.00,,---,0.00,VWS V13.01,2013-01-04 13:32:00,
2013-01-04 07:37:00,41.2,29.9,29.88,NW,318,3.6,3.6,64,0.00,,---,0.00,VWS V13.01,2013-01-04 13:37:00,
2013-01-04 07:42:00,41.2,29.2,29.88,NNW,336,0.0,0.0,62,0.00,,---,0.00,VWS V13.01,2013-01-04 13:42:00,
2013-01-04 07:47:00,41.4,28.1,29.88,NNW,340,3.6,3.6,59,0.00,,---,0.00,VWS V13.01,2013-01-04 13:47:00,
2013-01-04 07:52:00,41.2,27.1,29.88,NNE,27,2.7,2.7,57,0.00,,---,0.00,VWS V13.01,2013-01-04 13:52:00,
2013-01-04 07:57:00,41.2,26.7,29.88,North,357,2.7,2.7,56,0.00,,---,0.00,VWS V13.01,2013-01-04 13:57:00,
2013-01-04 08:02:00,41.2,26.7,29.88,North,357,3.6,3.6,56,0.00,,---,0.00,VWS V13.01,2013-01-04 14:02:00,
2013-01-04 08:07:00,41.4,27.3,29.88,North,357,4.0,4.0,57,0.00,,---,0.00,VWS V13.01,2013-01-04 14:07:00,
2013-01-04 08:12:00,41.4,27.3,29.88,NE,48,0.0,0.0,57,0.00,,---,0.00,VWS V13.01,2013-01-04 14:12:00,
2013-01-04 08:17:00,41.5,27.0,29.88,NE,48,0.0,0.0,56,0.00,,---,0.00,VWS V13.01,2013-01-04 14:17:00,
2013-01-04 08:22:00,41.5,27.5,29.88,NE,54,0.0,0.0,57,0.00,,---,0.00,VWS V13.01,2013-01-04 14:22:00,
2013-01-04 08:27:00,41.7,28.0,29.88,NE,53,0.0,0.0,58,0.00,,---,0.00,VWS V13.01,2013-01-04 14:27:00,
2013-01-04 08:32:00,41.9,27.8,29.88,ENE,57,4.9,4.9,57,0.00,,---,0.00,VWS V13.01,2013-01-04 14:32:00,
2013-01-04 08:37:00,41.9,26.9,29.91,ESE,104,4.9,4.9,55,0.00,,---,0.00,VWS V13.01,2013-01-04 14:37:00,
2013-01-04 08:42:00,42.1,26.6,29.91,East,89,0.0,0.0,54,0.00,,---,0.00,VWS V13.01,2013-01-04 14:42:00,
2013-01-04 08:47:00,42.3,26.4,29.91,ESE,111,3.6,4.0,53,0.00,,---,0.00,VWS V13.01,2013-01-04 14:47:00,
2013-01-04 08:52:00,42.3,25.9,29.91,East,88,0.0,2.2,52,0.00,,---,0.00,VWS V13.01,2013-01-04 14:52:00,
2013-01-04 08:57:00,42.4,26.1,29.91,SE,126,2.2,2.7,52,0.00,,---,0.00,VWS V13.01,2013-01-04 14:57:00,
2013-01-04 09:02:00,42.4,26.1,29.91,ESE,121,0.0,0.0,52,0.00,,---,0.00,VWS V13.01,2013-01-04 15:02:00,
2013-01-04 09:07:00,42.8,26.4,29.91,ESE,121,0.0,0.0,52,0.00,,---,0.00,VWS V13.01,2013-01-04 15:07:00,
2013-01-04 09:12:00,42.8,26.4,29.91,ESE,121,0.0,0.0,52,0.00,,---,0.00,VWS V13.01,2013-01-04 15:12:00,
2013-01-04 09:17:00,43.2,26.3,29.91,ESE,120,0.0,0.0,51,0.00,,---,0.00,VWS V13.01,2013-01-04 15:17:00,
2013-01-04 09:22:00,43.3,26.4,29.91,ESE,120,0.0,0.0,51,0.00,,---,0.00,VWS V13.01,2013-01-04 15:22:00,
2013-01-04 09:27:00,43.5,26.1,29.91,ESE,120,0.0,0.0,50,0.00,,---,0.00,VWS V13.01,2013-01-04 15:27:00,
2013-01-04 09:32:00,43.7,26.8,29.91,ESE,120,0.0,0.0,51,0.00,,---,0.00,VWS V13.01,2013-01-04 15:32:00,
2013-01-04 09:37:00,43.9,26.9,29.91,ESE,120,0.0,0.0,51,0.00,,---,0.00,VWS V13.01,2013-01-04 15:37:00,
2013-01-04 09:42:00,44.1,26.6,29.91,ESE,120,3.1,3.1,50,0.00,,---,0.00,VWS V13.01,2013-01-04 15:42:00,
2013-01-04 09:47:00,44.1,26.6,29.91,WNW,284,4.9,5.8,50,0.00,,---,0.00,VWS V13.01,2013-01-04 15:47:00,
2013-01-04 09:52:00,44.2,26.3,29.91,WNW,297,3.1,3.1,49,0.00,,---,0.00,VWS V13.01,2013-01-04 15:52:00,
2013-01-04 09:57:00,44.2,25.8,29.91,WNW,297,0.0,0.0,48,0.00,,---,0.00,VWS V13.01,2013-01-04 15:57:00,
2013-01-04 10:02:00,44.4,26.5,29.91,WNW,298,0.0,0.0,49,0.00,,---,0.00,VWS V13.01,2013-01-04 16:02:00,
2013-01-04 10:07:00,44.8,26.3,29.91,WNW,298,2.7,3.6,48,0.00,,---,0.00,VWS V13.01,2013-01-04 16:07:00,
2013-01-04 10:12:00,45.3,26.8,29.91,WNW,298,3.1,3.1,48,0.00,,---,0.00,VWS V13.01,2013-01-04 16:12:00,
2013-01-04 10:17:00,45.7,26.6,29.91,WNW,298,0.0,0.0,47,0.00,,---,0.00,VWS V13.01,2013-01-04 16:17:00,
2013-01-04 10:22:00,45.9,26.3,29.91,WNW,298,0.0,0.0,46,0.00,,---,0.00,VWS V13.01,2013-01-04 16:22:00,
2013-01-04 10:27:00,46.0,27.0,29.91,WNW,297,4.0,4.0,47,0.00,,---,0.00,VWS V13.01,2013-01-04 16:27:00,
2013-01-04 10:32:00,46.2,27.6,29.91,WNW,298,3.1,3.1,48,0.00,,---,0.00,VWS V13.01,2013-01-04 16:32:00,
2013-01-04 10:37:00,46.4,26.8,29.91,WNW,298,0.0,0.0,46,0.00,,---,0.00,VWS V13.01,2013-01-04 16:37:00,
2013-01-04 10:42:00,46.6,27.5,29.91,WNW,298,2.7,3.6,47,0.00,,---,0.00,VWS V13.01,2013-01-04 16:42:00,
2013-01-04 10:47:00,46.6,27.5,29.91,NNW,338,4.0,4.0,47,0.00,,---,0.00,VWS V13.01,2013-01-04 16:47:00,
2013-01-04 10:52:00,46.8,28.1,29.91,WNW,289,2.7,3.1,48,0.00,,---,0.00,VWS V13.01,2013-01-04 16:52:00,
2013-01-04 10:57:00,46.9,27.8,29.91,NNW,340,4.0,4.0,47,0.00,,---,0.00,VWS V13.01,2013-01-04 16:57:00,
2013-01-04 11:02:00,47.1,27.9,29.91,NE,55,3.6,4.0,47,0.00,,---,0.00,VWS V13.01,2013-01-04 17:02:00,
2013-01-04 11:07:00,47.3,28.6,29.91,WNW,287,2.7,2.7,48,0.00,,---,0.00,VWS V13.01,2013-01-04 17:07:00,
2013-01-04 11:12:00,47.7,29.0,29.91,WNW,301,0.0,0.0,48,0.00,,---,0.00,VWS V13.01,2013-01-04 17:12:00,
2013-01-04 11:17:00,47.8,29.1,29.91,WNW,290,0.0,0.0,48,0.00,,---,0.00,VWS V13.01,2013-01-04 17:17:00,
2013-01-04 11:22:00,48.0,28.2,29.91,NNW,337,3.1,3.1,46,0.00,,---,0.00,VWS V13.01,2013-01-04 17:22:00,
2013-01-04 11:27:00,48.2,28.9,29.91,WNW,296,4.0,5.4,47,0.00,,---,0.00,VWS V13.01,2013-01-04 17:27:00,
2013-01-04 11:32:00,48.6,28.7,29.91,WNW,290,4.9,4.9,46,0.00,,---,0.00,VWS V13.01,2013-01-04 17:32:00,
2013-01-04 11:37:00,48.7,28.9,29.91,WNW,287,0.0,3.1,46,0.00,,---,0.00,VWS V13.01,2013-01-04 17:37:00,
2013-01-04 11:42:00,48.6,28.7,29.91,NW,307,0.0,0.0,46,0.00,,---,0.00,VWS V13.01,2013-01-04 17:42:00,
2013-01-04 11:47:00,48.6,29.3,29.91,NW,304,5.4,5.4,47,0.00,,---,0.00,VWS V13.01,2013-01-04 17:47:00,
2013-01-04 11:52:00,48.9,29.6,29.88,NNW,334,3.1,3.6,47,0.00,,---,0.00,VWS V13.01,2013-01-04 17:52:00,
2013-01-04 11:57:00,48.9,28.5,29.88,North,3,4.9,4.9,45,0.00,,---,0.00,VWS V13.01,2013-01-04 17:57:00,
2013-01-04 12:02:00,48.9,28.5,29.88,North,1,0.0,0.0,45,0.00,,---,0.00,VWS V13.01,2013-01-04 18:02:00,
2013-01-04 12:07:00,49.3,29.4,29.88,NNW,343,3.6,3.6,46,0.00,,---,0.00,VWS V13.01,2013-01-04 18:07:00,
2013-01-04 12:12:00,49.6,29.2,29.88,NW,314,3.6,3.6,45,0.00,,---,0.00,VWS V13.01,2013-01-04 18:12:00,
2013-01-04 12:17:00,49.8,28.8,29.88,NNW,332,2.7,2.7,44,0.00,,---,0.00,VWS V13.01,2013-01-04 18:17:00,
2013-01-04 12:22:00,49.8,29.4,29.85,NNW,342,2.7,3.6,45,0.00,,---,0.00,VWS V13.01,2013-01-04 18:22:00,
2013-01-04 12:27:00,50.0,28.4,29.85,NW,322,0.0,0.0,43,0.00,,---,0.00,VWS V13.01,2013-01-04 18:27:00,
2013-01-04 12:32:00,50.0,29.5,29.85,West,268,3.6,4.9,45,0.00,,---,0.00,VWS V13.01,2013-01-04 18:32:00,
2013-01-04 12:37:00,50.2,28.6,29.85,WNW,291,3.6,3.6,43,0.00,,---,0.00,VWS V13.01,2013-01-04 18:37:00,
2013-01-04 12:42:00,50.4,29.3,29.85,West,270,2.2,2.2,44,0.00,,---,0.00,VWS V13.01,2013-01-04 18:42:00,
2013-01-04 12:47:00,50.7,29.6,29.85,West,270,0.0,3.6,44,0.00,,---,0.00,VWS V13.01,2013-01-04 18:47:00,
2013-01-04 12:52:00,50.7,29.1,29.85,WNW,286,3.1,4.0,43,0.00,,---,0.00,VWS V13.01,2013-01-04 18:52:00,
2013-01-04 12:57:00,50.7,29.1,29.85,WNW,296,2.7,4.0,43,0.00,,---,0.00,VWS V13.01,2013-01-04 18:57:00,
2013-01-04 13:02:00,50.7,27.9,29.85,WNW,294,3.1,3.6,41,0.00,,---,0.00,VWS V13.01,2013-01-04 19:02:00,
2013-01-04 13:07:00,50.5,28.3,29.85,WNW,288,2.7,5.4,42,0.00,,---,0.00,VWS V13.01,2013-01-04 19:07:00,
2013-01-04 13:12:00,50.4,27.6,29.85,NW,311,0.0,2.7,41,0.00,,---,0.00,VWS V13.01,2013-01-04 19:12:00,
2013-01-04 13:17:00,50.4,27.6,29.85,NNE,12,3.6,4.5,41,0.00,,---,0.00,VWS V13.01,2013-01-04 19:17:00,
2013-01-04 13:22:00,50.4,27.6,29.83,North,4,3.6,5.4,41,0.00,,---,0.00,VWS V13.01,2013-01-04 19:22:00,
2013-01-04 13:27:00,50.0,27.2,29.83,NNE,25,4.0,4.0,41,0.00,,---,0.00,VWS V13.01,2013-01-04 19:27:00,
2013-01-04 13:32:00,49.8,28.8,29.83,NNW,346,3.6,4.0,44,0.00,,---,0.00,VWS V13.01,2013-01-04 19:32:00,
2013-01-04 13:37:00,50.0,27.8,29.83,North,357,3.1,5.4,42,0.00,,---,0.00,VWS V13.01,2013-01-04 19:37:00,
2013-01-04 13:42:00,50.0,27.2,29.83,NNW,344,2.7,4.0,41,0.00,,---,0.00,VWS V13.01,2013-01-04 19:42:00,
2013-01-04 13:47:00,50.0,27.8,29.83,NNW,345,0.0,0.0,42,0.00,,---,0.00,VWS V13.01,2013-01-04 19:47:00,
2013-01-04 13:52:00,50.0,27.2,29.83,North,357,5.4,6.3,41,0.00,,---,0.00,VWS V13.01,2013-01-04 19:52:00,
2013-01-04 13:57:00,50.2,28.6,29.83,NW,325,2.7,4.0,43,0.00,,---,0.00,VWS V13.01,2013-01-04 19:57:00,
2013-01-04 14:02:00,50.5,28.9,29.83,NNW,328,2.7,4.0,43,0.00,,---,0.00,VWS V13.01,2013-01-04 20:02:00,
2013-01-04 14:07:00,50.9,28.1,29.83,North,8,4.9,5.4,41,0.00,,---,0.00,VWS V13.01,2013-01-04 20:07:00,
2013-01-04 14:12:00,50.7,27.9,29.83,NNW,331,4.0,4.9,41,0.00,,---,0.00,VWS V13.01,2013-01-04 20:12:00,
2013-01-04 14:17:00,50.9,27.5,29.83,NE,52,3.1,4.9,40,0.00,,---,0.00,VWS V13.01,2013-01-04 20:17:00,
2013-01-04 14:22:00,50.5,27.1,29.80,North,5,3.6,6.3,40,0.00,,---,0.00,VWS V13.01,2013-01-04 20:22:00,
2013-01-04 14:27:00,50.2,26.8,29.80,North,9,3.6,5.4,40,0.00,,---,0.00,VWS V13.01,2013-01-04 20:27:00,
2013-01-04 14:32:00,50.2,27.4,29.80,NE,49,0.0,0.0,41,0.00,,---,0.00,VWS V13.01,2013-01-04 20:32:00,
2013-01-04 14:37:00,50.2,26.8,29.80,North,0,3.1,3.6,40,0.00,,---,0.00,VWS V13.01,2013-01-04 20:37:00,
2013-01-04 14:42:00,50.2,26.8,29.80,NNW,334,2.2,3.1,40,0.00,,---,0.00,VWS V13.01,2013-01-04 20:42:00,
2013-01-04 14:47:00,50.4,27.6,29.80,North,0,0.0,3.6,41,0.00,,---,0.00,VWS V13.01,2013-01-04 20:47:00,
2013-01-04 14:52:00,50.5,27.1,29.80,ENE,71,4.0,4.9,40,0.00,,---,0.00,VWS V13.01,2013-01-04 20:52:00,
2013-01-04 14:57:00,50.4,27.0,29.80,ENE,67,4.0,5.4,40,0.00,,---,0.00,VWS V13.01,2013-01-04 20:57:00,
2013-01-04 15:02:00,50.2,26.2,29.80,NNE,18,2.7,3.6,39,0.00,,---,0.00,VWS V13.01,2013-01-04 21:02:00,
2013-01-04 15:07:00,50.0,26.0,29.80,NNE,17,0.0,0.0,39,0.00,,---,0.00,VWS V13.01,2013-01-04 21:07:00,
2013-01-04 15:12:00,49.8,25.9,29.80,SW,232,2.2,2.2,39,0.00,,---,0.00,VWS V13.01,2013-01-04 21:12:00,
2013-01-04 15:17:00,49.8,26.5,29.80,ENE,65,0.0,3.1,40,0.00,,---,0.00,VWS V13.01,2013-01-04 21:17:00,
2013-01-04 15:22:00,49.8,26.5,29.80,East,82,3.1,3.1,40,0.00,,---,0.00,VWS V13.01,2013-01-04 21:22:00,
2013-01-04 15:27:00,49.8,25.9,29.80,North,11,0.0,4.9,39,0.00,,---,0.00,VWS V13.01,2013-01-04 21:27:00,
2013-01-04 15:32:00,49.8,26.5,29.80,ENE,64,0.0,5.8,40,0.00,,---,0.00,VWS V13.01,2013-01-04 21:32:00,
2013-01-04 15:37:00,49.8,26.5,29.80,NNE,13,0.0,0.0,40,0.00,,---,0.00,VWS V13.01,2013-01-04 21:37:00,
2013-01-04 15:42:00,49.8,25.9,29.80,NE,46,3.1,4.9,39,0.00,,---,0.00,VWS V13.01,2013-01-04 21:42:00,
2013-01-04 15:47:00,49.6,25.7,29.80,NE,52,6.3,6.3,39,0.00,,---,0.00,VWS V13.01,2013-01-04 21:47:00,
2013-01-04 15:52:00,49.6,25.7,29.80,ENE,61,4.0,4.0,39,0.00,,---,0.00,VWS V13.01,2013-01-04 21:52:00,
2013-01-04 15:56:00,50.0,26.0,29.80,NNE,29,3.6,4.0,39,0.00,,---,0.00,VWS V13.01,2013-01-04 21:56:00,
2013-01-04 16:01:00,50.2,26.2,29.80,NE,45,5.4,6.7,39,0.00,,---,0.00,VWS V13.01,2013-01-04 22:01:00,
2013-01-04 16:06:00,50.0,26.0,29.80,NE,56,3.6,4.0,39,0.00,,---,0.00,VWS V13.01,2013-01-04 22:06:00,
2013-01-04 16:11:00,49.8,25.9,29.80,North,2,3.6,4.0,39,0.00,,---,0.00,VWS V13.01,2013-01-04 22:11:00,
2013-01-04 16:16:00,49.8,26.5,29.80,NE,46,3.1,3.1,40,0.00,,---,0.00,VWS V13.01,2013-01-04 22:16:00,
2013-01-04 16:21:00,49.8,26.5,29.80,ENE,60,3.1,4.9,40,0.00,,---,0.00,VWS V13.01,2013-01-04 22:21:00,
2013-01-04 16:26:00,49.6,26.3,29.80,ENE,57,3.1,3.1,40,0.00,,---,0.00,VWS V13.01,2013-01-04 22:26:00,
2013-01-04 16:31:00,49.5,26.2,29.80,East,99,3.1,4.0,40,0.00,,---,0.00,VWS V13.01,2013-01-04 22:31:00,
2013-01-04 16:36:00,49.3,26.0,29.80,ENE,68,0.0,0.0,40,0.00,,---,0.00,VWS V13.01,2013-01-04 22:36:00,
2013-01-04 16:41:00,49.1,25.8,29.80,ENE,67,0.0,0.0,40,0.00,,---,0.00,VWS V13.01,2013-01-04 22:41:00,
2013-01-04 16:46:00,48.9,25.7,29.80,ENE,67,0.0,0.0,40,0.00,,---,0.00,VWS V13.01,2013-01-04 22:46:00,
2013-01-04 16:51:00,48.7,25.5,29.80,ENE,68,2.2,2.7,40,0.00,,---,0.00,VWS V13.01,2013-01-04 22:51:00,
2013-01-04 16:56:00,48.7,25.5,29.80,ENE,68,0.0,0.0,40,0.00,,---,0.00,VWS V13.01,2013-01-04 22:56:00,
2013-01-04 17:01:00,48.7,26.1,29.80,ENE,68,3.6,3.6,41,0.00,,---,0.00,VWS V13.01,2013-01-04 23:01:00,
2013-01-04 17:06:00,48.7,26.1,29.80,ENE,67,2.2,3.6,41,0.00,,---,0.00,VWS V13.01,2013-01-04 23:06:00,
2013-01-04 17:11:00,48.6,26.0,29.80,ENE,65,5.8,6.3,41,0.00,,---,0.00,VWS V13.01,2013-01-04 23:11:00,
2013-01-04 17:16:00,48.2,25.6,29.80,NE,44,0.0,3.6,41,0.00,,---,0.00,VWS V13.01,2013-01-04 23:16:00,
2013-01-04 17:21:00,48.0,26.0,29.80,NE,55,3.6,4.9,42,0.00,,---,0.00,VWS V13.01,2013-01-04 23:21:00,
2013-01-04 17:26:00,47.8,25.9,29.80,NE,47,2.7,5.4,42,0.00,,---,0.00,VWS V13.01,2013-01-04 23:26:00,
2013-01-04 17:31:00,47.5,25.5,29.80,NE,42,2.7,2.7,42,0.00,,---,0.00,VWS V13.01,2013-01-04 23:31:00,
2013-01-04 17:36:00,47.3,26.0,29.80,NE,42,3.1,4.0,43,0.00,,---,0.00,VWS V13.01,2013-01-04 23:36:00,
2013-01-04 17:41:00,47.3,26.0,29.80,ENE,69,2.7,2.7,43,0.00,,---,0.00,VWS V13.01,2013-01-04 23:41:00,
2013-01-04 17:46:00,47.3,26.0,29.80,ENE,69,0.0,0.0,43,0.00,,---,0.00,VWS V13.01,2013-01-04 23:46:00,
2013-01-04 17:51:00,47.3,26.0,29.80,ENE,68,0.0,0.0,43,0.00,,---,0.00,VWS V13.01,2013-01-04 23:51:00,
2013-01-04 17:56:00,47.3,26.0,29.80,ENE,69,2.7,4.0,43,0.00,,---,0.00,VWS V13.01,2013-01-04 23:56:00,
2013-01-04 18:01:00,47.3,26.0,29.80,ENE,68,3.1,3.1,43,0.00,,---,0.00,VWS V13.01,2013-01-05 00:01:00,
2013-01-04 18:06:00,47.3,25.4,29.80,ENE,68,3.6,5.4,42,0.00,,---,0.00,VWS V13.01,2013-01-05 00:06:00,
2013-01-04 18:11:00,47.3,26.0,29.80,ENE,68,2.2,3.6,43,0.00,,---,0.00,VWS V13.01,2013-01-05 00:11:00,
2013-01-04 18:16:00,47.3,26.0,29.80,ENE,68,2.7,2.7,43,0.00,,---,0.00,VWS V13.01,2013-01-05 00:16:00,
2013-01-04 18:21:00,47.3,26.0,29.80,ENE,68,3.6,3.6,43,0.00,,---,0.00,VWS V13.01,2013-01-05 00:21:00,
2013-01-04 18:26:00,47.1,25.8,29.80,ENE,68,0.0,0.0,43,0.00,,---,0.00,VWS V13.01,2013-01-05 00:26:00,
2013-01-04 18:31:00,47.1,25.8,29.80,ENE,68,0.0,3.1,43,0.00,,---,0.00,VWS V13.01,2013-01-05 00:31:00,
2013-01-04 18:36:00,47.1,25.8,29.80,ENE,68,4.0,4.0,43,0.00,,---,0.00,VWS V13.01,2013-01-05 00:36:00,
2013-01-04 18:41:00,47.1,25.8,29.80,NE,56,3.1,3.6,43,0.00,,---,0.00,VWS V13.01,2013-01-05 00:41:00,
2013-01-04 18:46:00,47.1,25.8,29.80,NNE,28,2.2,3.1,43,0.00,,---,0.00,VWS V13.01,2013-01-05 00:46:00,
2013-01-04 18:51:00,47.1,25.8,29.80,ENE,63,2.7,2.7,43,0.00,,---,0.00,VWS V13.01,2013-01-05 00:51:00,
2013-01-04 18:56:00,47.1,25.8,29.80,ENE,63,3.6,3.6,43,0.00,,---,0.00,VWS V13.01,2013-01-05 00:56:00,
2013-01-04 19:01:00,47.1,25.8,29.80,NNE,27,3.6,3.6,43,0.00,,---,0.00,VWS V13.01,2013-01-05 01:01:00,
2013-01-04 19:06:00,46.9,25.6,29.80,NNE,31,0.0,3.1,43,0.00,,---,0.00,VWS V13.01,2013-01-05 01:06:00,
2013-01-04 19:11:00,46.9,25.6,29.80,NE,53,3.1,3.6,43,0.00,,---,0.00,VWS V13.01,2013-01-05 01:11:00,
2013-01-04 19:16:00,46.8,25.5,29.80,NE,56,4.0,4.0,43,0.00,,---,0.00,VWS V13.01,2013-01-05 01:16:00,
2013-01-04 19:21:00,46.8,25.5,29.80,NE,56,2.7,2.7,43,0.00,,---,0.00,VWS V13.01,2013-01-05 01:21:00,
2013-01-04 19:26:00,46.8,25.5,29.80,NE,56,2.7,2.7,43,0.00,,---,0.00,VWS V13.01,2013-01-05 01:26:00,
2013-01-04 19:31:00,46.8,26.0,29.80,NE,56,2.7,2.7,44,0.00,,---,0.00,VWS V13.01,2013-01-05 01:31:00,
2013-01-04 19:36:00,46.8,26.0,29.80,NE,56,2.7,2.7,44,0.00,,---,0.00,VWS V13.01,2013-01-05 01:36:00,
2013-01-04 19:41:00,46.6,25.9,29.77,NE,56,2.7,2.7,44,0.00,,---,0.00,VWS V13.01,2013-01-05 01:41:00,
2013-01-04 19:46:00,46.4,26.2,29.77,NE,56,2.7,2.7,45,0.00,,---,0.00,VWS V13.01,2013-01-05 01:46:00,
2013-01-04 19:51:00,46.4,26.2,29.80,NE,56,2.7,2.7,45,0.00,,---,0.00,VWS V13.01,2013-01-05 01:51:00,
2013-01-04 19:56:00,46.4,26.2,29.80,NE,56,2.7,2.7,45,0.00,,---,0.00,VWS V13.01,2013-01-05 01:56:00,
2013-01-04 20:01:00,46.4,26.2,29.80,NE,55,0.0,3.6,45,0.00,,---,0.00,VWS V13.01,2013-01-05 02:01:00,
2013-01-04 20:06:00,46.4,26.2,29.80,NE,55,0.0,0.0,45,0.00,,---,0.00,VWS V13.01,2013-01-05 02:06:00,
2013-01-04 20:11:00,46.4,26.8,29.80,NE,55,0.0,0.0,46,0.00,,---,0.00,VWS V13.01,2013-01-05 02:11:00,
2013-01-04 20:16:00,46.4,26.8,29.80,NE,55,0.0,0.0,46,0.00,,---,0.00,VWS V13.01,2013-01-05 02:16:00,
2013-01-04 20:21:00,46.6,26.9,29.80,NE,55,0.0,0.0,46,0.00,,---,0.00,VWS V13.01,2013-01-05 02:21:00,
2013-01-04 20:26:00,46.6,26.9,29.80,NE,55,0.0,0.0,46,0.00,,---,0.00,VWS V13.01,2013-01-05 02:26:00,
2013-01-04 20:31:00,46.6,26.9,29.80,NE,55,0.0,0.0,46,0.00,,---,0.00,VWS V13.01,2013-01-05 02:31:00,
2013-01-04 20:36:00,46.6,26.9,29.80,NE,55,0.0,0.0,46,0.00,,---,0.00,VWS V13.01,2013-01-05 02:36:00,
2013-01-04 20:41:00,46.6,26.9,29.80,NE,55,0.0,0.0,46,0.00,,---,0.00,VWS V13.01,2013-01-05 02:41:00,
2013-01-04 20:46:00,46.6,26.4,29.80,NE,55,0.0,0.0,45,0.00,,---,0.00,VWS V13.01,2013-01-05 02:46:00,
2013-01-04 20:51:00,46.6,26.4,29.80,NE,55,0.0,0.0,45,0.00,,---,0.00,VWS V13.01,2013-01-05 02:51:00,
2013-01-04 20:56:00,46.6,26.4,29.80,NE,55,0.0,0.0,45,0.00,,---,0.00,VWS V13.01,2013-01-05 02:56:00,
2013-01-04 21:01:00,46.4,26.2,29.80,NE,55,2.7,3.6,45,0.00,,---,0.00,VWS V13.01,2013-01-05 03:01:00,
2013-01-04 21:06:00,46.4,26.2,29.80,NE,55,2.7,2.7,45,0.00,,---,0.00,VWS V13.01,2013-01-05 03:06:00,
2013-01-04 21:11:00,46.4,26.2,29.80,NE,55,4.5,4.5,45,0.00,,---,0.00,VWS V13.01,2013-01-05 03:11:00,
2013-01-04 21:16:00,46.4,26.2,29.80,NE,55,0.0,0.0,45,0.00,,---,0.00,VWS V13.01,2013-01-05 03:16:00,
2013-01-04 21:21:00,46.4,26.2,29.77,NE,55,4.0,4.0,45,0.00,,---,0.00,VWS V13.01,2013-01-05 03:21:00,
2013-01-04 21:26:00,46.2,27.1,29.77,NE,55,3.6,3.6,47,0.00,,---,0.00,VWS V13.01,2013-01-05 03:26:00,
2013-01-04 21:31:00,46.2,27.1,29.77,NE,55,0.0,0.0,47,0.00,,---,0.00,VWS V13.01,2013-01-05 03:31:00,
2013-01-04 21:36:00,46.2,27.1,29.77,NE,55,2.2,3.1,47,0.00,,---,0.00,VWS V13.01,2013-01-05 03:36:00,
2013-01-04 21:41:00,46.2,27.1,29.77,NE,55,3.6,3.6,47,0.00,,---,0.00,VWS V13.01,2013-01-05 03:41:00,
2013-01-04 21:46:00,46.2,27.1,29.77,NE,55,0.0,0.0,47,0.00,,---,0.00,VWS V13.01,2013-01-05 03:46:00,
2013-01-04 21:51:00,46.2,27.1,29.77,NE,55,0.0,0.0,47,0.00,,---,0.00,VWS V13.01,2013-01-05 03:51:00,